MKJP/KIN METAR and TAF weather

Enter ICAO airport designator
Station Type Date Time Source
MKJP METAR 2024/04/17 18:00 UTC NOAA

MKJP 171800Z 01010KT 9999 VCSH SCT018 BKN032 29/24 Q1012


Station Type Date Time Source
MKJP Decoded METAR 2024/04/17 18:00 UTC NOAA

Kingston / Norman Manley, Jamaica (MKJP) 17-56N 076-47W 14M
Apr 17, 2024 - 02:00 PM EDT / 2024.04.17 1800 UTC
Wind: from the N (010 degrees) at 12 MPH (10 KT):0
Visibility: greater than 7 mile(s):0
Sky conditions: mostly cloudy
Weather: showers in the vicinity
Temperature: 84 F (29 C)
Dew Point: 75 F (24 C)
Relative Humidity: 74%
Pressure (altimeter): 29.88 in. Hg (1012 hPa)
ob: MKJP 171800Z 01010KT 9999 VCSH SCT018 BKN032 29/24 Q1012
cycle: 18

Station Type Date Time Source
MKJP TAF 2024/04/17 18:15 UTC NOAA